Time;durP1;ratioP1;P1;durP2;ratioP2;P2;SDS_P1;SDS_P2;PMS_P1;PMS_P2;Temp;Humidity;BMP_temperature;BMP_pressure;BME280_temperature;BME280_humidity;BME280_pressure;Samples;Min_cycle;Max_cycle;Signal;HPM_P1;HPM_P2
2023/04/20 00:01:06;;;;;;;15.70;9.98;;;;;;;17.32;62.67;96195.53;4964899;28;20083;-52
2023/04/20 00:03:36;;;;;;;16.73;9.87;;;;;;;16.74;67.20;96207.28;4962859;28;20097;-57
2023/04/20 00:06:05;;;;;;;17.23;9.52;;;;;;;16.88;67.11;96202.94;4964564;28;20090;-57
2023/04/20 00:08:34;;;;;;;15.35;9.05;;;;;;;17.11;64.51;96197.44;4965248;28;20083;-54
2023/04/20 00:11:02;;;;;;;13.95;9.13;;;;;;;17.31;63.35;96191.25;4962843;28;20094;-54
2023/04/20 00:13:30;;;;;;;16.90;10.18;;;;;;;16.92;64.77;96188.22;4961884;28;20085;-59
2023/04/20 00:15:58;;;;;;;14.90;9.70;;;;;;;16.09;71.07;96182.38;4962578;28;20089;-54
2023/04/20 00:18:28;;;;;;;13.80;9.35;;;;;;;16.69;69.01;96183.03;4963759;28;20083;-56
2023/04/20 00:20:56;;;;;;;15.07;9.48;;;;;;;16.40;71.93;96178.66;4966277;28;20082;-55
2023/04/20 00:23:25;;;;;;;16.45;10.00;;;;;;;16.70;68.85;96185.53;4963553;28;20160;-58
2023/04/20 00:25:53;;;;;;;19.73;10.25;;;;;;;15.78;76.14;96174.63;4968085;28;20082;-58
2023/04/20 00:28:21;;;;;;;15.30;9.85;;;;;;;15.89;78.83;96169.66;4968088;28;20094;-57
2023/04/20 00:30:50;;;;;;;15.73;9.63;;;;;;;15.92;77.41;96165.00;4964184;28;20145;-61
2023/04/20 00:33:18;;;;;;;15.68;10.70;;;;;;;16.35;74.64;96166.75;4967032;28;20505;-55
2023/04/20 00:35:48;;;;;;;18.27;10.38;;;;;;;16.21;74.03;96170.28;4966441;28;20081;-55
2023/04/20 00:38:16;;;;;;;18.50;10.32;;;;;;;15.87;77.85;96168.22;4965578;28;20086;-56
2023/04/20 00:40:47;;;;;;;16.80;9.95;;;;;;;15.79;79.14;96166.44;4970717;28;20082;-51
2023/04/20 00:43:15;;;;;;;21.15;10.35;;;;;;;15.56;83.24;96163.06;4962846;28;20086;-50
2023/04/20 00:46:23;;;;;;;16.23;10.15;;;;;;;15.51;81.34;96160.09;4966056;28;20097;-59
2023/04/20 00:48:56;;;;;;;18.05;10.40;;;;;;;15.86;78.24;96147.94;4945796;28;20093;-57
2023/04/20 00:51:27;;;;;;;15.75;9.68;;;;;;;16.03;74.96;96137.91;4973567;28;20070;-53
2023/04/20 00:53:56;;;;;;;19.52;9.90;;;;;;;15.41;80.94;96145.25;4973880;28;20089;-52
2023/04/20 00:56:24;;;;;;;18.67;10.07;;;;;;;15.62;80.18;96146.34;4971748;28;20097;-57
2023/04/20 00:58:52;;;;;;;15.88;9.30;;;;;;;15.82;77.92;96133.34;4971720;28;20186;-58
2023/04/20 01:01:21;;;;;;;17.10;9.15;;;;;;;15.57;81.19;96124.81;4970257;28;20475;-61
2023/04/20 01:03:49;;;;;;;15.55;9.60;;;;;;;15.39;83.78;96127.84;4978812;28;20074;-59
2023/04/20 01:06:17;;;;;;;16.75;9.38;;;;;;;15.47;82.45;96117.13;4976125;28;20058;-59
2023/04/20 01:08:48;;;;;;;17.20;9.85;;;;;;;15.43;82.54;96118.50;4972908;28;20102;-58
2023/04/20 01:11:17;;;;;;;18.40;10.65;;;;;;;15.76;78.87;96119.00;4971590;28;20086;-59
2023/04/20 01:13:45;;;;;;;19.17;11.63;;;;;;;15.55;81.81;96110.88;4970604;28;20101;-57
2023/04/20 01:16:13;;;;;;;18.38;10.02;;;;;;;15.05;86.69;96113.25;4971381;28;20082;-56
2023/04/20 01:18:45;;;;;;;17.85;9.32;;;;;;;14.38;96.10;96113.13;4967675;28;20086;-54
2023/04/20 01:21:15;;;;;;;20.98;10.20;;;;;;;14.82;92.08;96102.69;4970938;28;20586;-56
2023/04/20 01:23:45;;;;;;;16.75;9.52;;;;;;;14.88;96.64;96107.28;4971238;28;20086;-59
2023/04/20 01:26:15;;;;;;;16.13;9.95;;;;;;;14.98;94.50;96104.38;4969845;28;20425;-53
2023/04/20 01:28:44;;;;;;;16.70;11.02;;;;;;;15.01;93.57;96087.25;4969609;28;20086;-59
2023/04/20 01:31:13;;;;;;;18.60;10.38;;;;;;;15.52;86.79;96087.34;4969637;28;20070;-59
2023/04/20 01:33:42;;;;;;;19.38;10.82;;;;;;;15.38;89.23;96084.53;4969488;28;20078;-55
2023/04/20 01:36:10;;;;;;;19.85;10.82;;;;;;;15.57;86.29;96088.44;4964936;28;20082;-61
2023/04/20 01:38:39;;;;;;;17.80;10.60;;;;;;;15.61;85.60;96086.25;4969302;28;20621;-59
2023/04/20 01:41:09;;;;;;;18.02;10.73;;;;;;;15.89;82.55;96086.41;4968887;28;20074;-56
2023/04/20 01:43:39;;;;;;;16.65;10.65;;;;;;;15.51;84.86;96085.69;4961449;28;20535;-58
2023/04/20 01:46:07;;;;;;;19.45;11.32;;;;;;;15.42;86.13;96079.66;4968819;28;20090;-56
2023/04/20 01:48:35;;;;;;;15.85;10.38;;;;;;;16.11;79.49;96069.47;4969471;28;20094;-53
2023/04/20 01:51:04;;;;;;;15.63;9.55;;;;;;;15.58;84.61;96079.44;4970870;28;20094;-58
2023/04/20 01:53:32;;;;;;;16.23;9.75;;;;;;;15.82;79.52;96081.00;4967439;28;20082;-54
2023/04/20 01:56:00;;;;;;;18.40;10.73;;;;;;;15.80;80.95;96077.72;4970798;28;20117;-57
2023/04/20 01:58:30;;;;;;;18.40;10.27;;;;;;;15.63;84.75;96077.06;4967877;28;20082;-56
2023/04/20 02:01:01;;;;;;;18.35;11.27;;;;;;;15.54;86.58;96072.84;4964860;28;20154;-54
2023/04/20 02:03:29;;;;;;;;;;;;;;;15.09;90.31;96073.88;4962372;28;20086;-61
2023/04/20 02:05:58;;;;;;;21.42;11.45;;;;;;;15.22;89.25;96067.94;4966600;28;19972;-57
2023/04/20 02:08:26;;;;;;;16.50;9.93;;;;;;;15.19;88.36;96072.59;4964376;28;20082;-55
2023/04/20 02:10:54;;;;;;;18.15;11.52;;;;;;;15.33;86.96;96062.97;4962542;28;20078;-57
2023/04/20 02:13:23;;;;;;;16.05;9.98;;;;;;;15.08;92.46;96065.09;4960861;28;20090;-52
2023/04/20 02:15:52;;;;;;;16.30;9.73;;;;;;;15.19;92.95;96064.63;4964582;28;20086;-62
2023/04/20 02:18:21;;;;;;;22.88;11.45;;;;;;;15.37;88.67;96061.59;4962476;28;20087;-53
2023/04/20 02:20:49;;;;;;;16.65;10.35;;;;;;;15.16;90.24;96054.38;4967791;28;20090;-54
2023/04/20 02:23:18;;;;;;;17.02;10.13;;;;;;;15.06;90.72;96063.63;4963097;28;20086;-58
2023/04/20 02:25:46;;;;;;;18.35;10.82;;;;;;;15.69;84.01;96056.94;4961605;28;20090;-55
2023/04/20 02:28:14;;;;;;;18.90;10.52;;;;;;;15.61;85.61;96057.00;4963906;28;20082;-54
2023/04/20 02:30:43;;;;;;;16.58;9.85;;;;;;;15.34;88.71;96059.31;4963243;28;20094;-54
2023/04/20 02:33:12;;;;;;;15.52;10.57;;;;;;;15.31;88.76;96062.38;4969597;28;20471;-54
2023/04/20 02:35:41;;;;;;;18.57;10.93;;;;;;;15.61;87.47;96065.78;4967221;28;20082;-60
2023/04/20 02:38:09;;;;;;;20.27;10.43;;;;;;;15.80;83.75;96051.13;4969365;28;20058;-54
2023/04/20 02:40:37;;;;;;;16.52;10.90;;;;;;;15.74;83.11;96057.19;4969384;28;20082;-54
2023/04/20 02:43:06;;;;;;;18.67;10.20;;;;;;;15.91;80.97;96052.47;4966992;28;20105;-50
2023/04/20 02:45:34;;;;;;;18.88;10.57;;;;;;;16.02;80.29;96051.16;4968613;28;20483;-54
2023/04/20 02:48:03;;;;;;;17.50;9.88;;;;;;;15.21;86.81;96051.19;4967761;28;20082;-56
2023/04/20 02:50:33;;;;;;;17.33;10.63;;;;;;;15.52;87.72;96047.47;4963225;28;20079;-57
2023/04/20 02:53:02;;;;;;;19.05;11.30;;;;;;;15.60;84.54;96044.72;4964794;28;20082;-50
2023/04/20 02:55:30;;;;;;;20.20;10.98;;;;;;;15.88;80.44;96042.22;4968845;28;20082;-51
2023/04/20 02:57:58;;;;;;;20.48;11.77;;;;;;;15.94;79.36;96041.47;4969109;28;20097;-55
2023/04/20 03:00:27;;;;;;;20.10;11.48;;;;;;;16.21;77.14;96050.56;4964883;28;20082;-55
2023/04/20 03:02:55;;;;;;;18.15;11.27;;;;;;;16.89;70.46;96040.28;4968936;28;20101;-50
2023/04/20 03:05:24;;;;;;;20.65;12.00;;;;;;;16.53;73.21;96038.53;4969155;28;20090;-57
2023/04/20 03:07:53;;;;;;;26.17;14.23;;;;;;;16.96;70.54;96041.13;4969582;28;20043;-56
2023/04/20 03:10:22;;;;;;;23.13;14.00;;;;;;;16.31;73.19;96035.09;4968093;28;20082;-60
2023/04/20 03:12:50;;;;;;;22.88;13.55;;;;;;;16.47;74.34;96036.66;4966771;28;20078;-51
2023/04/20 03:15:18;;;;;;;21.75;12.38;;;;;;;16.12;80.07;96033.06;4968902;28;20082;-54
2023/04/20 03:17:47;;;;;;;23.90;14.57;;;;;;;15.69;82.22;96034.81;4968473;28;20093;-54
2023/04/20 03:20:15;;;;;;;26.08;13.35;;;;;;;16.32;79.82;96017.28;4968487;28;20471;-55
2023/04/20 03:22:43;;;;;;;20.20;12.45;;;;;;;15.87;85.51;96028.09;4968545;28;20082;-52
2023/04/20 03:25:13;;;;;;;23.88;13.43;;;;;;;15.99;86.19;96022.28;4968881;28;20688;-50
2023/04/20 03:27:41;;;;;;;26.77;15.57;;;;;;;15.56;89.77;96025.69;4969005;28;20455;-54
2023/04/20 03:30:11;;;;;;;28.00;14.50;;;;;;;15.37;95.00;96027.06;4968749;28;20471;-54
2023/04/20 03:32:39;;;;;;;22.40;13.55;;;;;;;15.23;95.89;96030.56;4969199;28;20081;-57
2023/04/20 03:35:09;;;;;;;23.40;12.85;;;;;;;15.65;90.73;96024.53;4962657;28;20078;-53
2023/04/20 03:37:37;;;;;;;24.23;12.75;;;;;;;15.71;90.64;96020.34;4967772;28;20093;-58
2023/04/20 03:40:07;;;;;;;25.02;15.50;;;;;;;15.14;95.12;96029.84;4969478;28;20086;-57
2023/04/20 03:42:37;;;;;;;28.00;15.13;;;;;;;14.74;98.98;96032.94;4965920;28;20086;-59
2023/04/20 03:45:06;;;;;;;24.05;12.80;;;;;;;15.54;92.69;96021.53;4965415;28;20082;-55
2023/04/20 03:47:35;;;;;;;20.80;11.23;;;;;;;15.44;88.21;96024.50;4965120;28;20097;-53
2023/04/20 03:50:03;;;;;;;16.15;7.03;;;;;;;15.71;83.12;96030.16;4963747;28;20512;-60
2023/04/20 03:52:32;;;;;;;18.35;10.45;;;;;;;15.19;87.38;96026.63;4964403;28;20494;-51
2023/04/20 03:55:00;;;;;;;13.75;8.07;;;;;;;15.10;89.08;96033.03;4963537;28;20147;-55
2023/04/20 03:57:28;;;;;;;17.25;10.07;;;;;;;14.90;85.71;96030.94;4963626;28;20082;-52
2023/04/20 03:59:58;;;;;;;14.75;8.57;;;;;;;14.80;89.59;96024.25;4968247;28;20078;-60
2023/04/20 04:02:27;;;;;;;16.17;8.47;;;;;;;14.41;89.72;96025.22;4967038;28;20090;-55
2023/04/20 04:04:55;;;;;;;11.40;6.72;;;;;;;14.84;84.02;96023.69;4968838;28;20743;-55
2023/04/20 04:07:24;;;;;;;9.82;6.35;;;;;;;14.72;88.81;96025.13;4972142;28;20086;-59
2023/04/20 04:09:52;;;;;;;8.00;5.10;;;;;;;13.90;99.29;96017.84;4971343;28;20086;-57
2023/04/20 04:12:20;;;;;;;9.15;5.35;;;;;;;14.29;95.81;96010.75;4972755;28;20077;-58
2023/04/20 04:14:49;;;;;;;9.07;5.78;;;;;;;13.91;99.70;96008.88;4972641;28;20086;-56
2023/04/20 04:17:18;;;;;;;6.90;3.95;;;;;;;14.24;96.98;96008.63;4972918;28;20534;-50
2023/04/20 04:19:47;;;;;;;4.00;2.50;;;;;;;13.90;98.53;96022.28;4971882;28;20090;-59
2023/04/20 04:22:15;;;;;;;8.35;4.88;;;;;;;14.52;90.13;96016.03;4972760;28;20094;-58
2023/04/20 04:24:43;;;;;;;9.73;5.90;;;;;;;14.33;95.42;96012.84;4972355;28;20562;-59
2023/04/20 04:27:14;;;;;;;8.18;5.07;;;;;;;15.02;83.60;96003.94;4967176;28;20085;-55
2023/04/20 04:29:43;;;;;;;8.45;4.65;;;;;;;14.28;95.76;95999.31;4970716;28;20478;-56
2023/04/20 04:32:12;;;;;;;9.70;5.50;;;;;;;14.76;85.79;96001.69;4972411;28;20089;-54
2023/04/20 04:34:43;;;;;;;9.70;5.43;;;;;;;14.34;90.08;96016.31;4971846;28;20093;-56
2023/04/20 04:37:13;;;;;;;10.25;5.63;;;;;;;14.83;85.01;96021.19;4972075;28;20075;-58
2023/04/20 04:39:41;;;;;;;11.13;5.75;;;;;;;14.80;83.39;96022.41;4971838;28;20097;-57
2023/04/20 04:42:09;;;;;;;10.65;7.28;;;;;;;14.70;82.66;96019.19;4972228;28;20086;-60
2023/04/20 04:44:38;;;;;;;11.05;6.97;;;;;;;14.17;93.45;96010.34;4974679;28;20145;-56
2023/04/20 04:47:08;;;;;;;8.80;5.00;;;;;;;14.35;86.63;96008.22;4972631;28;20543;-59
2023/04/20 04:49:36;;;;;;;12.45;8.25;;;;;;;14.39;85.22;96012.16;4972324;28;20071;-59
2023/04/20 04:52:06;;;;;;;9.90;5.35;;;;;;;14.57;87.85;96005.72;4970961;28;20101;-52
2023/04/20 04:54:34;;;;;;;12.37;6.50;;;;;;;15.37;77.51;96005.00;4969170;28;20082;-52
2023/04/20 04:57:02;;;;;;;8.93;5.65;;;;;;;15.50;73.23;96004.34;4972213;28;20079;-56
2023/04/20 04:59:31;;;;;;;12.18;6.72;;;;;;;15.75;75.46;96007.50;4969713;28;20093;-51
2023/04/20 05:01:59;;;;;;;13.18;6.65;;;;;;;15.36;77.58;96014.78;4965909;28;20082;-55
2023/04/20 05:04:28;;;;;;;10.30;6.13;;;;;;;14.67;85.07;96012.41;4972011;28;20082;-56
2023/04/20 05:06:56;;;;;;;11.45;6.50;;;;;;;14.57;85.86;96011.03;4971652;28;20480;-59
2023/04/20 05:09:32;;;;;;;11.35;6.82;;;;;;;14.99;84.55;96007.75;4974314;28;20535;-56
2023/04/20 05:12:02;;;;;;;11.55;6.90;;;;;;;14.80;86.90;96006.47;4969197;28;20081;-54
2023/04/20 05:14:31;;;;;;;13.43;7.20;;;;;;;14.79;83.91;96010.13;4971933;28;20085;-55
2023/04/20 05:16:59;;;;;;;9.68;4.78;;;;;;;14.92;82.69;96014.81;4969222;28;20095;-52
2023/04/20 05:19:28;;;;;;;9.70;6.05;;;;;;;14.32;91.90;96016.53;4970155;28;20078;-55
2023/04/20 05:21:56;;;;;;;11.35;7.03;;;;;;;13.48;100.00;96019.06;4971328;28;20125;-60
2023/04/20 05:24:26;;;;;;;11.23;8.43;;;;;;;13.50;100.00;96013.59;4971487;28;20081;-58
2023/04/20 05:26:54;;;;;;;10.50;7.87;;;;;;;13.18;100.00;96018.03;4970789;28;20082;-53
2023/04/20 05:29:23;;;;;;;12.32;8.82;;;;;;;13.46;100.00;96015.78;4970305;28;20078;-53
2023/04/20 05:31:51;;;;;;;10.77;5.88;;;;;;;14.19;94.81;96016.28;4970798;28;20089;-52
2023/04/20 05:34:19;;;;;;;10.25;7.03;;;;;;;14.58;89.99;96013.50;4970890;28;20051;-55
2023/04/20 05:36:48;;;;;;;10.30;7.00;;;;;;;13.78;96.43;96022.69;4953775;28;20070;-57
2023/04/20 05:39:16;;;;;;;10.30;6.78;;;;;;;14.21;92.43;96009.81;4972061;28;20520;-57
2023/04/20 05:41:47;;;;;;;12.07;8.35;;;;;;;13.73;97.03;96011.00;4971180;28;20105;-54
2023/04/20 05:44:15;;;;;;;13.20;8.70;;;;;;;13.98;96.30;96014.31;4971527;28;20071;-58
2023/04/20 05:46:44;;;;;;;13.52;8.93;;;;;;;13.72;97.52;96015.44;4971508;28;20082;-53
2023/04/20 05:49:12;;;;;;;11.55;6.80;;;;;;;14.17;96.64;96013.81;4968695;28;20521;-57
2023/04/20 05:51:40;;;;;;;9.15;4.80;;;;;;;14.13;99.82;96012.50;4969565;28;20479;-59
2023/04/20 05:54:09;;;;;;;11.27;7.90;;;;;;;13.70;100.00;96012.16;4971382;28;20094;-59
2023/04/20 05:56:38;;;;;;;12.10;7.38;;;;;;;14.34;92.13;95998.59;4968311;28;20085;-58
2023/04/20 05:59:08;;;;;;;7.68;5.50;;;;;;;14.15;100.00;96007.88;4947233;28;20070;-58
2023/04/20 06:01:36;;;;;;;10.50;7.22;;;;;;;14.04;98.28;96000.34;4971214;28;20077;-60
2023/04/20 06:04:04;;;;;;;15.27;8.60;;;;;;;14.58;95.36;95996.75;4965105;28;20644;-54
2023/04/20 06:06:33;;;;;;;11.93;7.38;;;;;;;14.58;93.06;95988.78;4970723;28;20471;-53
2023/04/20 06:09:02;;;;;;;9.27;5.93;;;;;;;14.38;90.69;96004.34;4969399;28;20086;-54
2023/04/20 06:11:31;;;;;;;7.32;3.70;;;;;;;14.30;97.22;96002.59;4970796;28;20086;-52
2023/04/20 06:13:59;;;;;;;9.93;6.85;;;;;;;14.03;95.25;96014.56;4970124;28;20070;-59
2023/04/20 06:16:29;;;;;;;8.15;5.45;;;;;;;14.41;93.74;96006.66;4970637;28;20083;-57
2023/04/20 06:18:57;;;;;;;10.63;6.72;;;;;;;14.84;88.35;96001.63;4969999;28;20093;-56
2023/04/20 06:21:26;;;;;;;10.90;4.90;;;;;;;13.93;97.45;96019.28;4970650;28;20085;-52
2023/04/20 06:23:54;;;;;;;10.40;6.80;;;;;;;14.70;85.24;96000.63;4968828;28;20086;-56
2023/04/20 06:26:23;;;;;;;9.18;5.72;;;;;;;14.79;84.09;95996.03;4972706;28;20077;-54
2023/04/20 06:28:52;;;;;;;10.20;7.30;;;;;;;13.32;100.00;96005.91;4969189;28;20083;-55
2023/04/20 06:31:20;;;;;;;7.70;5.00;;;;;;;14.83;90.03;95995.50;4969940;28;20086;-56
2023/04/20 06:33:50;;;;;;;9.38;6.10;;;;;;;13.94;95.75;96000.56;4968562;28;20090;-58
2023/04/20 06:36:18;;;;;;;7.40;5.15;;;;;;;13.89;93.62;96002.91;4970437;28;20082;-58
2023/04/20 06:38:46;;;;;;;7.18;4.15;;;;;;;14.06;93.86;96000.16;4969765;28;20105;-52
2023/04/20 06:41:15;;;;;;;7.35;5.28;;;;;;;13.65;100.00;95995.94;4969244;28;20083;-55
2023/04/20 06:43:44;;;;;;;9.57;4.55;;;;;;;14.53;89.45;95983.22;4970066;28;20086;-56
2023/04/20 06:46:12;;;;;;;7.90;4.93;;;;;;;13.54;100.00;95991.88;4967620;28;20077;-58
2023/04/20 06:48:41;;;;;;;8.85;5.60;;;;;;;15.08;84.10;95974.81;4969760;28;20124;-58
2023/04/20 06:51:12;;;;;;;7.78;5.00;;;;;;;15.49;82.46;95981.44;4966570;28;20082;-58
2023/04/20 06:53:40;;;;;;;9.13;5.45;;;;;;;14.19;88.71;95982.63;4970296;28;20083;-55
2023/04/20 06:56:10;;;;;;;9.45;4.13;;;;;;;14.81;87.41;95981.59;4966788;28;20094;-57
2023/04/20 06:58:38;;;;;;;5.03;3.33;;;;;;;14.02;97.78;95976.66;4968956;28;20094;-50
2023/04/20 07:01:06;;;;;;;7.85;4.72;;;;;;;14.10;96.42;95983.69;4966589;28;20102;-58
2023/04/20 07:03:35;;;;;;;6.93;4.18;;;;;;;14.51;92.88;95987.88;4967567;28;20097;-59
2023/04/20 07:06:05;;;;;;;5.43;3.53;;;;;;;14.86;84.05;95981.84;4969680;28;20501;-56
2023/04/20 07:08:35;;;;;;;8.07;5.38;;;;;;;14.11;91.56;95968.63;4970140;28;20086;-58
2023/04/20 07:11:03;;;;;;;9.30;5.43;;;;;;;13.85;98.75;95969.81;4969730;28;20093;-56
2023/04/20 07:13:32;;;;;;;7.95;5.68;;;;;;;13.41;100.00;95962.47;4970204;28;20513;-52
2023/04/20 07:16:01;;;;;;;4.53;3.30;;;;;;;13.79;93.96;95967.88;4969343;28;20630;-57
2023/04/20 07:18:30;;;;;;;4.93;3.55;;;;;;;13.66;96.39;95978.22;4969473;28;20082;-58
2023/04/20 07:21:01;;;;;;;7.10;4.90;;;;;;;14.03;90.69;95972.16;4970013;28;20102;-56
2023/04/20 07:23:29;;;;;;;5.07;3.90;;;;;;;13.91;90.21;95974.41;4969330;28;20089;-57
2023/04/20 07:25:58;;;;;;;7.60;5.50;;;;;;;13.54;100.00;95972.50;4969064;28;20475;-51
2023/04/20 07:28:27;;;;;;;6.33;3.93;;;;;;;14.62;83.25;95967.00;4964848;28;20078;-57
2023/04/20 07:30:55;;;;;;;5.50;3.70;;;;;;;13.98;94.38;95963.94;4969910;28;20089;-55
2023/04/20 07:33:24;;;;;;;6.63;4.10;;;;;;;14.37;91.39;95971.69;4968541;28;20808;-54
2023/04/20 07:35:52;;;;;;;7.07;4.78;;;;;;;14.42;91.12;95963.22;4968852;28;20093;-57
2023/04/20 07:38:20;;;;;;;8.00;5.78;;;;;;;13.85;97.30;95982.25;4969209;28;20086;-58
2023/04/20 07:40:49;;;;;;;9.65;4.28;;;;;;;14.97;86.60;95969.97;4968834;28;20094;-57
2023/04/20 07:43:18;;;;;;;6.47;3.78;;;;;;;14.92;88.96;95965.19;4967017;28;20086;-54
2023/04/20 07:45:47;;;;;;;5.03;4.00;;;;;;;14.40;90.20;95970.53;4970236;28;20089;-56
2023/04/20 07:48:15;;;;;;;5.47;4.03;;;;;;;15.20;82.12;95967.19;4961230;28;20455;-56
2023/04/20 07:50:44;;;;;;;4.60;3.17;;;;;;;14.92;84.03;95977.63;4964869;28;20078;-57
2023/04/20 07:53:13;;;;;;;8.02;6.22;;;;;;;14.15;91.31;95986.66;4968934;28;20086;-56
2023/04/20 07:55:41;;;;;;;5.00;3.17;;;;;;;14.93;83.28;95985.44;4969851;28;20086;-60
2023/04/20 07:58:09;;;;;;;6.82;4.43;;;;;;;15.70;76.97;95984.16;4969152;28;20087;-58
2023/04/20 08:00:39;;;;;;;7.72;5.15;;;;;;;15.59;80.33;95998.72;4965600;28;20074;-56
2023/04/20 08:03:07;;;;;;;9.43;6.50;;;;;;;14.77;85.08;95998.06;4968831;28;20085;-59
2023/04/20 08:05:39;;;;;;;9.45;5.63;;;;;;;15.11;89.06;95997.53;4970012;28;20058;-58
2023/04/20 08:08:08;;;;;;;8.27;5.03;;;;;;;15.53;81.10;95996.81;4965339;28;20101;-57
2023/04/20 08:10:36;;;;;;;8.45;5.50;;;;;;;15.26;81.43;96003.63;4968945;28;20565;-52
2023/04/20 08:13:04;;;;;;;8.70;5.20;;;;;;;15.50;79.11;95988.38;4968866;28;20093;-55
2023/04/20 08:15:33;;;;;;;5.43;2.67;;;;;;;15.07;79.95;95991.75;4970169;28;20070;-54
2023/04/20 08:18:02;;;;;;;10.25;6.15;;;;;;;14.87;84.52;95991.47;4969146;28;20539;-55
2023/04/20 08:20:31;;;;;;;7.05;4.57;;;;;;;15.25;79.23;95987.88;4969451;28;20082;-53
2023/04/20 08:23:00;;;;;;;8.50;6.18;;;;;;;14.57;84.48;95987.16;4967950;28;20093;-57
2023/04/20 08:25:28;;;;;;;6.97;5.15;;;;;;;14.70;83.42;95974.91;4968584;28;20090;-57
2023/04/20 08:27:57;;;;;;;7.18;4.60;;;;;;;15.31;77.66;95966.72;4968280;28;20531;-58
2023/04/20 08:30:27;;;;;;;5.13;3.35;;;;;;;15.10;81.55;95964.81;4969406;28;20082;-52
2023/04/20 08:32:55;;;;;;;8.10;5.28;;;;;;;14.72;84.30;95966.75;4969553;28;20090;-57
2023/04/20 08:35:25;;;;;;;8.07;4.45;;;;;;;14.85;84.92;95958.97;4972119;28;20074;-54
2023/04/20 08:37:53;;;;;;;8.43;5.18;;;;;;;15.63;75.87;95954.00;4965006;28;20101;-55
2023/04/20 08:40:23;;;;;;;6.45;4.60;;;;;;;15.52;75.06;95957.97;4968255;28;20082;-56
2023/04/20 08:42:51;;;;;;;5.10;3.25;;;;;;;15.06;76.62;95970.69;4966529;28;20101;-56
2023/04/20 08:45:19;;;;;;;7.65;5.00;;;;;;;16.12;67.48;95962.06;4968653;28;20093;-54
2023/04/20 08:47:48;;;;;;;6.95;4.53;;;;;;;15.46;73.20;95969.34;4971707;28;20082;-55
2023/04/20 08:50:16;;;;;;;6.78;4.32;;;;;;;15.85;70.85;95968.97;4972290;28;20089;-58
2023/04/20 08:52:46;;;;;;;8.25;4.97;;;;;;;16.47;69.22;95964.78;4972225;28;20082;-57
2023/04/20 08:55:15;;;;;;;7.43;4.90;;;;;;;15.50;71.96;95962.63;4969946;28;20089;-58
2023/04/20 08:57:43;;;;;;;5.60;3.20;;;;;;;16.42;66.44;95966.41;4971433;28;20093;-53
2023/04/20 09:00:13;;;;;;;8.52;4.97;;;;;;;15.85;70.01;95971.63;4966042;28;20087;-53
2023/04/20 09:02:51;;;;;;;8.18;6.55;;;;;;;15.06;78.42;95976.00;4971616;28;20093;-54
2023/04/20 09:05:27;;;;;;;9.10;5.95;;;;;;;15.63;72.57;95977.91;4971213;28;20086;-58
2023/04/20 09:07:59;;;;;;;7.53;4.88;;;;;;;16.07;68.81;95971.59;4969795;28;20084;-55
2023/04/20 09:10:39;;;;;;;7.30;4.78;;;;;;;16.95;63.32;95966.78;4971862;28;20113;-59
2023/04/20 09:13:08;;;;;;;6.30;4.30;;;;;;;14.75;73.69;95977.00;4971778;28;20086;-54
2023/04/20 09:15:36;;;;;;;9.68;6.82;;;;;;;15.28;71.27;95976.88;4970807;28;20508;-58
2023/04/20 09:18:12;;;;;;;6.45;4.20;;;;;;;16.02;67.83;95961.56;4971348;28;20491;-57
2023/04/20 09:20:41;;;;;;;5.20;3.22;;;;;;;16.02;65.19;95963.41;4972268;28;20134;-51
2023/04/20 09:23:14;;;;;;;6.72;4.10;;;;;;;16.84;62.47;95962.81;4971373;28;20456;-56
2023/04/20 09:25:45;;;;;;;8.93;5.18;;;;;;;16.97;63.10;95951.44;4971289;28;20561;-58
2023/04/20 09:28:13;;;;;;;8.80;4.13;;;;;;;16.52;61.06;95959.72;4971537;28;20475;-57
2023/04/20 09:30:44;;;;;;;7.13;4.38;;;;;;;16.26;65.19;95965.66;4971570;28;20093;-56
2023/04/20 09:33:13;;;;;;;6.97;4.72;;;;;;;16.69;58.72;95970.03;4964276;28;20086;-56
2023/04/20 09:35:43;;;;;;;6.10;4.25;;;;;;;16.65;60.11;95966.13;4973439;28;20116;-54
2023/04/20 09:38:15;;;;;;;6.38;3.42;;;;;;;16.94;58.88;95965.94;4971636;28;20163;-53
2023/04/20 09:40:44;;;;;;;6.32;4.35;;;;;;;16.81;59.85;95957.88;4967046;28;20090;-55
2023/04/20 09:43:18;;;;;;;5.80;3.92;;;;;;;17.38;57.08;95958.56;4964837;28;20140;-56
2023/04/20 09:45:46;;;;;;;5.72;4.32;;;;;;;17.04;56.81;95970.94;4971582;28;20097;-57
2023/04/20 09:48:18;;;;;;;5.68;3.67;;;;;;;16.19;60.35;95962.13;4965141;28;20087;-54
2023/04/20 09:50:47;;;;;;;4.90;2.70;;;;;;;16.53;61.02;95955.22;4971671;28;20078;-55
2023/04/20 09:53:20;;;;;;;7.30;4.45;;;;;;;17.13;58.75;95960.91;4967385;28;20523;-55
2023/04/20 09:55:50;;;;;;;5.63;4.00;;;;;;;16.11;62.16;95965.75;4971019;28;20078;-53
2023/04/20 09:58:19;;;;;;;7.97;4.03;;;;;;;17.27;57.39;95971.47;4970799;28;20081;-54
2023/04/20 10:00:47;;;;;;;6.55;4.40;;;;;;;17.16;57.72;95974.66;4967625;28;20090;-52
2023/04/20 10:03:17;;;;;;;5.65;3.72;;;;;;;17.03;59.21;95956.78;4967809;28;20082;-61
2023/04/20 10:05:45;;;;;;;6.07;4.07;;;;;;;16.73;62.64;95950.03;4967424;28;20094;-59
2023/04/20 10:08:14;;;;;;;7.22;4.28;;;;;;;16.49;64.51;95949.47;4967797;28;20078;-55
2023/04/20 10:10:46;;;;;;;5.78;4.32;;;;;;;16.70;64.99;95942.44;4970819;28;20565;-55
2023/04/20 10:13:14;;;;;;;5.55;3.58;;;;;;;16.46;64.76;95938.38;4968976;28;20093;-56
2023/04/20 10:15:43;;;;;;;5.68;3.28;;;;;;;16.79;60.48;95943.94;4971054;28;20086;-60
2023/04/20 10:18:23;;;;;;;6.22;4.03;;;;;;;17.18;60.26;95934.50;4970633;28;20082;-55
2023/04/20 10:20:51;;;;;;;;;;;;;;;16.82;61.36;95944.34;4970851;28;20086;-55
2023/04/20 10:23:20;;;;;;;5.78;3.20;;;;;;;16.56;62.63;95945.00;4969854;28;19973;-58
2023/04/20 10:26:00;;;;;;;6.97;5.00;;;;;;;16.35;66.95;95929.91;4952480;28;20074;-51
2023/04/20 10:28:38;;;;;;;8.23;4.10;;;;;;;17.01;65.01;95916.19;4965179;28;20070;-57
2023/04/20 10:31:07;;;;;;;6.15;4.07;;;;;;;16.00;72.34;95925.50;4952548;28;20074;-55
2023/04/20 10:33:36;;;;;;;7.25;5.50;;;;;;;16.03;67.08;95912.66;4970189;28;20456;-56
2023/04/20 10:36:04;;;;;;;9.52;7.03;;;;;;;15.59;71.85;95926.97;4969812;28;20089;-53
2023/04/20 10:38:34;;;;;;;6.20;4.00;;;;;;;16.18;70.47;95920.56;4970509;28;20078;-55
2023/04/20 10:41:07;;;;;;;5.45;3.42;;;;;;;15.47;80.11;95927.63;4966909;28;20086;-51
2023/04/20 10:43:37;;;;;;;7.45;3.90;;;;;;;16.48;68.31;95912.38;4970024;28;20466;-55
2023/04/20 10:46:13;;;;;;;6.10;4.45;;;;;;;15.97;71.11;95912.63;4969844;28;20105;-55
2023/04/20 10:48:50;;;;;;;8.65;5.20;;;;;;;16.29;71.24;95903.25;4970162;28;20094;-57
2023/04/20 10:51:18;;;;;;;7.57;4.53;;;;;;;15.60;75.70;95910.00;4969775;28;20093;-54
2023/04/20 10:53:57;;;;;;;4.63;3.33;;;;;;;16.12;72.56;95908.03;4968457;28;20083;-54
2023/04/20 10:56:27;;;;;;;4.53;3.15;;;;;;;16.72;68.27;95901.25;4962687;28;20085;-53
2023/04/20 10:59:06;;;;;;;4.07;2.57;;;;;;;16.69;71.26;95896.34;4969587;28;20079;-53
2023/04/20 11:01:34;;;;;;;8.63;4.45;;;;;;;17.28;66.12;95901.13;4969931;28;20093;-59
2023/04/20 11:04:03;;;;;;;7.95;4.88;;;;;;;16.68;70.68;95896.53;4969690;28;20082;-57
2023/04/20 11:06:31;;;;;;;6.90;4.60;;;;;;;17.55;63.53;95894.03;4969727;28;20089;-56
2023/04/20 11:09:00;;;;;;;5.70;3.92;;;;;;;17.90;59.43;95882.44;4968766;28;20114;-54
2023/04/20 11:11:29;;;;;;;5.88;4.20;;;;;;;17.93;58.92;95877.50;4970018;28;20484;-55
2023/04/20 11:14:07;;;;;;;3.70;2.22;;;;;;;17.71;58.14;95876.81;4963561;28;20561;-58
2023/04/20 11:16:36;;;;;;;4.95;3.63;;;;;;;18.59;55.15;95879.28;4969481;28;20478;-51
2023/04/20 11:19:23;;;;;;;8.38;5.07;;;;;;;17.72;60.03;95872.31;4969763;28;20086;-52
2023/04/20 11:21:51;;;;;;;7.70;4.22;;;;;;;17.51;59.28;95874.13;4969207;28;20104;-56
2023/04/20 11:24:21;;;;;;;5.75;4.30;;;;;;;17.06;62.61;95880.97;4969769;28;20145;-54
2023/04/20 11:26:53;;;;;;;16.80;4.53;;;;;;;17.88;59.89;95871.94;4968255;28;20082;-53
2023/04/20 11:29:28;;;;;;;6.82;4.85;;;;;;;18.05;58.27;95869.69;4965100;28;20082;-56
2023/04/20 11:31:57;;;;;;;6.25;3.78;;;;;;;17.59;58.93;95867.78;4971020;28;20089;-55
2023/04/20 11:34:26;;;;;;;7.75;4.22;;;;;;;17.08;61.62;95878.94;4969370;28;20534;-59
2023/04/20 11:36:55;;;;;;;5.57;3.83;;;;;;;17.49;60.33;95864.69;4964913;28;20140;-56